createdAt,value
2018-04-11T00:00:34.891Z,59.72
2018-04-11T00:03:03.226Z,59.72
2018-04-11T00:05:31.557Z,59.46
2018-04-11T00:07:59.893Z,59.94
2018-04-11T00:10:28.215Z,60.43
2018-04-11T00:12:56.547Z,60.67
2018-04-11T00:15:24.872Z,61.03
2018-04-11T00:17:54.211Z,60.81
2018-04-11T00:20:22.941Z,60.21
2018-04-11T00:22:51.311Z,61.09
2018-04-11T00:25:19.833Z,60.51
2018-04-11T00:27:48.168Z,60.67
2018-04-11T00:30:16.479Z,61.04
2018-04-11T00:32:44.804Z,60.87
2018-04-11T00:35:13.113Z,61.02
2018-04-11T00:37:41.443Z,61.71
2018-04-11T00:40:09.774Z,61.67
2018-04-11T00:42:38.121Z,61.71
2018-04-11T00:45:06.452Z,61.88
2018-04-11T00:47:34.773Z,61.77
2018-04-11T00:53:08.623Z,62.11
2018-04-11T00:55:36.982Z,62.68
2018-04-11T00:58:05.305Z,63.11
2018-04-11T01:00:40.594Z,63.27
2018-04-11T01:05:54.175Z,64.58
2018-04-11T01:08:22.530Z,64.42
2018-04-11T01:10:50.874Z,64.81
2018-04-11T01:13:19.177Z,65.37
2018-04-11T01:15:47.512Z,65.96
2018-04-11T01:18:15.825Z,66.69
2018-04-11T01:20:44.200Z,66.74
2018-04-11T01:23:12.524Z,67.11
2018-04-11T01:25:40.862Z,67.31
2018-04-11T01:28:09.185Z,66.80
2018-04-11T01:30:37.509Z,67.12
2018-04-11T01:33:05.832Z,66.19
2018-04-11T01:35:34.156Z,66.00
2018-04-11T01:38:02.507Z,65.64
2018-04-11T01:40:30.845Z,65.87
2018-04-11T01:42:59.165Z,66.07
2018-04-11T01:45:27.487Z,66.48
2018-04-11T01:47:55.817Z,66.27
2018-04-11T01:50:24.132Z,66.60
2018-04-11T01:52:52.477Z,66.90
2018-04-11T01:55:20.832Z,67.00
2018-04-11T01:57:49.190Z,67.80
2018-04-11T02:00:17.530Z,68.23
2018-04-11T02:02:45.857Z,67.50
2018-04-11T02:05:14.161Z,67.96
2018-04-11T02:07:42.491Z,68.29
2018-04-11T02:10:10.811Z,68.79
2018-04-11T02:12:39.163Z,69.00
2018-04-11T02:15:07.493Z,69.00
2018-04-11T02:17:35.848Z,69.17
2018-04-11T02:20:04.172Z,69.94
2018-04-11T02:22:32.504Z,70.30
2018-04-11T02:25:00.829Z,70.60
2018-04-11T02:27:29.181Z,70.61
2018-04-11T02:29:57.499Z,71.36
2018-04-11T02:32:25.836Z,71.60
2018-04-11T02:34:54.182Z,71.42
2018-04-11T02:37:22.510Z,71.57
2018-04-11T02:39:50.839Z,71.85
2018-04-11T02:42:19.150Z,71.74
2018-04-11T02:44:47.488Z,71.69
2018-04-11T02:47:15.804Z,71.74
2018-04-11T02:49:44.178Z,72.01
2018-04-11T02:52:12.516Z,71.72
2018-04-11T02:54:40.858Z,72.32
2018-04-11T02:57:09.199Z,72.24
2018-04-11T02:59:37.535Z,72.49
2018-04-11T03:02:05.865Z,72.36
2018-04-11T03:04:34.213Z,72.18
2018-04-11T03:07:02.526Z,72.16
2018-04-11T03:09:30.881Z,72.32
2018-04-11T03:11:59.204Z,72.61
2018-04-11T03:14:27.594Z,72.93
2018-04-11T03:16:55.912Z,72.89
2018-04-11T03:19:24.260Z,72.58
2018-04-11T03:21:52.575Z,72.76
2018-04-11T03:24:20.901Z,72.84
2018-04-11T03:26:49.222Z,72.86
2018-04-11T03:29:17.540Z,72.82
2018-04-11T03:31:45.947Z,73.39
2018-04-11T03:34:14.364Z,73.39
2018-04-11T03:36:42.692Z,73.75
2018-04-11T03:39:11.028Z,74.15
2018-04-11T03:41:39.388Z,74.29
2018-04-11T03:44:07.725Z,74.22
2018-04-11T03:46:36.068Z,74.02
2018-04-11T03:49:04.390Z,73.82
2018-04-11T03:51:32.728Z,73.87
2018-04-11T03:54:01.032Z,73.71
2018-04-11T03:56:29.368Z,73.40
2018-04-11T03:58:57.778Z,73.69
2018-04-11T04:01:26.112Z,73.57
2018-04-11T04:03:54.461Z,73.14
2018-04-11T04:06:22.793Z,73.30
2018-04-11T04:08:51.133Z,73.18
2018-04-11T04:11:19.489Z,73.12
2018-04-11T04:13:59.779Z,72.22
2018-04-11T04:16:40.013Z,71.50
2018-04-11T04:19:20.169Z,71.54
2018-04-11T04:21:48.521Z,71.41
2018-04-11T04:24:16.841Z,71.21
2018-04-11T04:26:45.587Z,70.92
2018-04-11T04:29:14.116Z,70.83
2018-04-11T04:31:42.449Z,70.64
2018-04-11T04:34:10.783Z,70.38
2018-04-11T04:36:39.093Z,69.97
2018-04-11T04:39:07.444Z,69.65
2018-04-11T04:41:35.807Z,70.61
2018-04-11T04:44:04.139Z,71.74
2018-04-11T04:46:32.630Z,69.67
2018-04-11T04:49:01.033Z,70.61
2018-04-11T04:51:29.340Z,68.13
2018-04-11T04:53:57.677Z,67.73
2018-04-11T04:56:26.005Z,67.73
2018-04-11T04:58:54.338Z,67.81
2018-04-11T05:01:22.653Z,67.90
2018-04-11T05:03:50.985Z,67.42
2018-04-11T05:06:19.300Z,67.92
2018-04-11T05:08:47.636Z,67.85
2018-04-11T05:11:16.052Z,67.63
2018-04-11T05:13:44.427Z,67.27
2018-04-11T05:16:12.753Z,67.30
2018-04-11T05:18:41.075Z,67.61
2018-04-11T05:21:09.420Z,67.84
2018-04-11T05:23:37.770Z,67.59
2018-04-11T05:26:06.111Z,68.47
2018-04-11T05:28:34.434Z,67.82
2018-04-11T05:31:02.777Z,67.56
2018-04-11T05:33:31.102Z,67.20
2018-04-11T05:35:59.433Z,67.23
2018-04-11T05:38:27.759Z,66.45
2018-04-11T05:40:56.113Z,66.43
2018-04-11T05:43:24.434Z,66.64
2018-04-11T05:45:52.771Z,66.39
2018-04-11T05:48:21.114Z,66.94
2018-04-11T05:50:49.467Z,65.45
2018-04-11T05:53:17.797Z,65.50
2018-04-11T05:55:46.199Z,64.92
2018-04-11T05:58:14.515Z,64.21
2018-04-11T06:00:42.862Z,63.41
2018-04-11T06:03:11.182Z,62.56
2018-04-11T06:05:39.506Z,61.11
2018-04-11T06:08:07.831Z,61.18
2018-04-11T06:10:36.203Z,60.55
2018-04-11T06:13:04.599Z,60.00
2018-04-11T06:15:32.936Z,59.45
2018-04-11T06:18:01.278Z,58.80
2018-04-11T06:20:29.619Z,58.80
2018-04-11T06:22:57.983Z,57.02
2018-04-11T06:25:26.272Z,53.38
2018-04-11T06:27:54.628Z,52.37
2018-04-11T06:30:22.996Z,52.89
2018-04-11T06:32:51.325Z,54.00
2018-04-11T06:35:19.657Z,54.46
2018-04-11T06:37:47.997Z,55.29
2018-04-11T06:40:16.349Z,57.08
2018-04-11T06:42:44.683Z,57.47
2018-04-11T06:45:13.013Z,57.23
2018-04-11T06:47:41.345Z,57.97
2018-04-11T06:50:38.387Z,58.75
2018-04-11T06:53:08.299Z,58.54
2018-04-11T06:55:36.629Z,57.29
2018-04-11T06:58:04.975Z,57.67
2018-04-11T07:00:33.326Z,58.22
2018-04-11T07:03:01.681Z,57.93
2018-04-11T07:05:30.009Z,57.93
2018-04-11T07:07:58.460Z,59.29
2018-04-11T07:10:26.815Z,59.24
2018-04-11T07:12:55.150Z,58.42
2018-04-11T07:15:23.481Z,57.89
2018-04-11T07:17:51.800Z,58.42
2018-04-11T07:20:20.177Z,57.62
2018-04-11T07:22:48.579Z,56.58
2018-04-11T07:25:16.916Z,56.26
2018-04-11T07:27:45.244Z,56.72
2018-04-11T07:30:13.603Z,55.42
2018-04-11T07:32:41.923Z,55.20
2018-04-11T07:35:10.252Z,55.03
2018-04-11T07:37:38.577Z,54.62
2018-04-11T07:40:06.927Z,53.17
2018-04-11T07:42:35.299Z,53.02
2018-04-11T07:45:03.633Z,52.21
2018-04-11T07:47:31.935Z,51.49
2018-04-11T07:50:00.269Z,51.44
2018-04-11T07:52:28.581Z,50.47
2018-04-11T07:54:56.899Z,50.65
2018-04-11T07:57:25.244Z,50.05
2018-04-11T07:59:53.614Z,50.74
2018-04-11T08:02:21.904Z,49.53
2018-04-11T08:04:50.240Z,49.04
2018-04-11T08:07:18.592Z,48.11
2018-04-11T08:09:46.915Z,46.69
2018-04-11T08:12:15.257Z,45.29
2018-04-11T08:14:43.582Z,43.58
2018-04-11T08:17:11.910Z,44.14
2018-04-11T08:19:40.227Z,41.55
2018-04-11T08:22:08.583Z,38.90
2018-04-11T08:24:36.891Z,38.82
2018-04-11T08:27:05.225Z,40.31
2018-04-11T08:29:33.560Z,41.65
2018-04-11T08:32:01.899Z,42.81
2018-04-11T08:34:30.231Z,43.52
2018-04-11T08:36:58.556Z,45.03
2018-04-11T08:39:26.877Z,44.39
2018-04-11T08:41:55.275Z,43.63
2018-04-11T08:44:23.573Z,42.53
2018-04-11T08:46:51.889Z,43.92
2018-04-11T08:49:20.221Z,43.70
2018-04-11T08:51:48.523Z,43.00
2018-04-11T08:54:16.856Z,43.41
2018-04-11T08:56:45.160Z,43.14
2018-04-11T08:59:13.504Z,43.07
2018-04-11T09:01:41.833Z,42.91
2018-04-11T09:04:10.170Z,42.67
2018-04-11T09:06:38.504Z,43.33
2018-04-11T09:09:06.837Z,45.70
2018-04-11T09:11:35.155Z,45.95
2018-04-11T09:14:03.495Z,46.13
2018-04-11T09:16:31.813Z,47.26
2018-04-11T09:19:00.166Z,45.96
2018-04-11T09:21:28.495Z,46.77
2018-04-11T09:23:56.828Z,45.00
2018-04-11T09:26:25.150Z,43.86
2018-04-11T09:28:53.497Z,44.52
2018-04-11T09:31:21.817Z,45.92
2018-04-11T09:33:50.135Z,45.11
2018-04-11T09:36:18.460Z,44.53
2018-04-11T09:38:46.820Z,44.78
2018-04-11T09:41:15.112Z,44.98
2018-04-11T09:43:43.441Z,44.86
2018-04-11T09:46:11.753Z,43.57
2018-04-11T09:48:40.080Z,39.74
2018-04-11T09:51:08.434Z,38.71
2018-04-11T09:53:36.744Z,39.10
2018-04-11T09:56:05.106Z,37.90
2018-04-11T09:58:33.420Z,37.19
2018-04-11T10:01:04.018Z,36.41
2018-04-11T10:03:32.335Z,37.42
2018-04-11T10:06:00.670Z,38.83
2018-04-11T10:08:28.998Z,40.27
2018-04-11T10:10:57.395Z,39.73
2018-04-11T10:13:25.713Z,40.55
2018-04-11T10:15:54.054Z,41.50
2018-04-11T10:18:22.376Z,41.59
2018-04-11T10:20:50.716Z,41.05
2018-04-11T10:23:19.046Z,41.37
2018-04-11T10:25:47.385Z,39.55
2018-04-11T10:28:15.700Z,39.16
2018-04-11T10:30:44.024Z,39.60
2018-04-11T10:33:12.364Z,41.38
2018-04-11T10:35:40.708Z,41.38
2018-04-11T10:38:09.049Z,41.05
2018-04-11T10:40:37.374Z,41.84
2018-04-11T10:43:05.706Z,42.39
2018-04-11T10:45:34.142Z,42.02
2018-04-11T10:48:02.555Z,40.11
2018-04-11T10:50:30.807Z,39.21
2018-04-11T10:52:59.143Z,38.89
2018-04-11T10:55:27.457Z,38.99
2018-04-11T10:57:55.794Z,40.61
2018-04-11T11:00:24.172Z,40.10
2018-04-11T11:02:52.483Z,40.31
2018-04-11T11:05:20.800Z,39.31
2018-04-11T11:07:49.138Z,37.94
2018-04-11T11:10:17.497Z,36.79
2018-04-11T11:12:45.845Z,36.78
2018-04-11T11:15:14.149Z,36.46
2018-04-11T11:17:42.499Z,34.14
2018-04-11T11:20:10.847Z,34.18
2018-04-11T11:22:39.172Z,32.05
2018-04-11T11:25:07.515Z,32.91
2018-04-11T11:27:35.827Z,33.77
2018-04-11T11:30:04.169Z,35.34
2018-04-11T11:32:32.485Z,36.04
2018-04-11T11:35:00.820Z,35.91
2018-04-11T11:37:29.139Z,37.32
2018-04-11T11:39:57.479Z,38.12
2018-04-11T11:42:25.792Z,38.57
2018-04-11T11:44:54.157Z,37.71
2018-04-11T11:47:22.469Z,38.83
2018-04-11T11:49:50.823Z,37.92
2018-04-11T11:52:19.141Z,38.48
2018-04-11T11:54:47.469Z,39.18
2018-04-11T11:57:15.824Z,39.28
2018-04-11T11:59:44.163Z,37.69
2018-04-11T12:02:12.485Z,34.74
2018-04-11T12:04:40.807Z,33.69
2018-04-11T12:07:09.140Z,35.71
2018-04-11T12:09:37.462Z,36.78
2018-04-11T12:12:05.793Z,35.83
2018-04-11T12:14:34.113Z,36.14
2018-04-11T12:17:02.447Z,37.92
2018-04-11T12:19:30.765Z,36.27
2018-04-11T12:21:59.089Z,36.84
2018-04-11T12:24:27.426Z,37.73
2018-04-11T12:26:55.753Z,39.38
2018-04-11T12:29:24.085Z,38.16
2018-04-11T12:31:52.419Z,38.85
2018-04-11T12:34:20.745Z,36.58
2018-04-11T12:36:49.070Z,35.79
2018-04-11T12:39:17.417Z,36.51
2018-04-11T12:41:45.739Z,36.49
2018-04-11T12:44:14.048Z,35.74
2018-04-11T12:46:42.378Z,36.29
2018-04-11T12:49:10.686Z,36.08
2018-04-11T12:51:39.022Z,36.90
2018-04-11T12:54:07.350Z,37.49
2018-04-11T12:56:35.675Z,37.42
2018-04-11T12:59:03.992Z,38.32
2018-04-11T13:01:32.323Z,38.33
2018-04-11T13:04:01.100Z,38.50
2018-04-11T13:06:29.440Z,38.96
2018-04-11T13:08:57.756Z,38.88
2018-04-11T13:11:26.098Z,39.60
2018-04-11T13:13:54.421Z,40.11
2018-04-11T13:16:22.766Z,40.11
2018-04-11T13:18:51.075Z,41.21
2018-04-11T13:21:19.567Z,40.37
2018-04-11T13:23:47.850Z,40.48
2018-04-11T13:26:16.164Z,40.23
2018-04-11T13:28:44.496Z,39.61
2018-04-11T13:31:12.821Z,38.42
2018-04-11T13:33:41.160Z,37.22
2018-04-11T13:36:09.471Z,36.05
2018-04-11T13:38:37.862Z,35.43
2018-04-11T13:41:06.200Z,34.06
2018-04-11T13:43:34.538Z,32.97
2018-04-11T13:46:02.854Z,32.44
2018-04-11T13:48:31.199Z,32.73
2018-04-11T13:50:59.511Z,34.89
2018-04-11T13:53:27.853Z,34.69
2018-04-11T13:55:56.194Z,34.65
2018-04-11T13:58:24.544Z,34.51
2018-04-11T14:00:52.882Z,35.50
2018-04-11T14:03:21.254Z,36.30
2018-04-11T14:05:49.585Z,35.62
2018-04-11T14:08:17.986Z,36.59
2018-04-11T14:10:46.386Z,35.52
2018-04-11T14:13:14.703Z,34.24
2018-04-11T14:15:43.020Z,35.90
2018-04-11T14:18:11.336Z,35.22
2018-04-11T14:20:39.682Z,34.90
2018-04-11T14:23:08.006Z,36.46
2018-04-11T14:25:36.325Z,37.79
2018-04-11T14:28:04.670Z,37.43
2018-04-11T14:30:33.016Z,36.84
2018-04-11T14:33:01.330Z,35.91
2018-04-11T14:35:29.696Z,35.40
2018-04-11T14:37:58.054Z,35.43
2018-04-11T14:40:26.403Z,35.42
2018-04-11T14:42:54.740Z,37.15
2018-04-11T14:45:23.099Z,38.77
2018-04-11T14:47:51.428Z,39.63
2018-04-11T14:50:19.796Z,40.11
2018-04-11T14:52:48.149Z,37.32
2018-04-11T14:55:16.487Z,37.75
2018-04-11T14:57:44.819Z,36.46
2018-04-11T15:00:13.166Z,35.62
2018-04-11T15:02:41.554Z,35.69
2018-04-11T15:05:10.061Z,35.51
2018-04-11T15:07:38.400Z,35.52
2018-04-11T15:10:06.707Z,35.98
2018-04-11T15:12:35.067Z,35.71
2018-04-11T15:15:03.404Z,36.44
2018-04-11T15:17:31.730Z,37.41
2018-04-11T15:20:00.086Z,38.66
2018-04-11T15:22:28.397Z,40.10
2018-04-11T15:24:56.704Z,40.49
2018-04-11T15:27:25.045Z,40.74
2018-04-11T15:29:53.368Z,40.60
2018-04-11T15:32:21.711Z,40.61
2018-04-11T15:34:50.043Z,41.24
2018-04-11T15:37:18.389Z,41.19
2018-04-11T15:39:46.703Z,40.97
2018-04-11T15:42:15.092Z,40.47
2018-04-11T15:44:43.464Z,40.57
2018-04-11T15:47:11.792Z,40.81
2018-04-11T15:49:40.119Z,40.51
2018-04-11T15:52:08.421Z,40.83
2018-04-11T15:54:36.766Z,41.32
2018-04-11T15:57:05.086Z,41.14
2018-04-11T15:59:33.432Z,41.32
2018-04-11T16:02:01.754Z,40.82
2018-04-11T16:04:30.111Z,40.75
2018-04-11T16:07:04.067Z,40.96
2018-04-11T16:09:32.400Z,40.69
2018-04-11T16:12:00.721Z,40.67
2018-04-11T16:14:29.072Z,40.98
2018-04-11T16:16:57.387Z,41.50
2018-04-11T16:19:25.715Z,41.49
2018-04-11T16:21:54.028Z,42.34
2018-04-11T16:24:28.260Z,42.72
2018-04-11T16:26:57.698Z,42.94
2018-04-11T16:29:26.103Z,43.25
2018-04-11T16:31:54.430Z,44.41
2018-04-11T16:34:22.771Z,44.51
2018-04-11T16:36:51.092Z,44.10
2018-04-11T16:39:19.466Z,44.15
2018-04-11T16:41:47.790Z,44.43
2018-04-11T16:44:16.154Z,44.68
2018-04-11T16:46:44.480Z,44.51
2018-04-11T16:49:12.831Z,44.54
2018-04-11T16:51:41.156Z,45.10
2018-04-11T16:54:09.468Z,45.43
2018-04-11T16:56:37.840Z,45.18
2018-04-11T16:59:06.230Z,45.51
2018-04-11T17:01:34.563Z,45.50
2018-04-11T17:04:02.923Z,46.14
2018-04-11T17:06:31.241Z,45.97
2018-04-11T17:08:59.564Z,46.22
2018-04-11T17:11:27.887Z,46.73
2018-04-11T17:13:56.199Z,47.11
2018-04-11T17:16:24.542Z,47.48
2018-04-11T17:18:52.854Z,47.71
2018-04-11T17:21:32.890Z,47.49
2018-04-11T17:24:12.926Z,47.87
2018-04-11T17:26:52.988Z,48.47
2018-04-11T17:29:33.096Z,48.49
2018-04-11T17:32:01.492Z,48.80
2018-04-11T17:34:29.829Z,49.74
2018-04-11T17:36:58.163Z,49.33
2018-04-11T17:39:26.517Z,49.60
2018-04-11T17:41:54.862Z,49.88
2018-04-11T17:44:23.187Z,50.77
2018-04-11T17:49:42.608Z,50.61
2018-04-11T17:52:10.948Z,50.96
2018-04-11T17:54:57.797Z,51.20
2018-04-11T17:57:30.092Z,51.34
2018-04-11T17:59:58.347Z,51.45
2018-04-11T18:02:26.718Z,51.60
2018-04-11T18:04:55.069Z,51.50
2018-04-11T18:07:23.417Z,51.46
2018-04-11T18:09:51.799Z,51.92
2018-04-11T18:12:20.154Z,51.84
2018-04-11T18:14:48.505Z,51.27
2018-04-11T18:17:16.840Z,51.98
2018-04-11T18:19:45.172Z,52.04
2018-04-11T18:22:13.486Z,52.00
2018-04-11T18:24:41.816Z,52.10
2018-04-11T18:27:10.128Z,52.83
2018-04-11T18:29:38.456Z,52.08
2018-04-11T18:32:07.582Z,52.02
2018-04-11T18:34:35.898Z,52.15
2018-04-11T18:37:04.222Z,52.42
2018-04-11T18:39:32.704Z,52.52
2018-04-11T18:42:01.009Z,52.31
2018-04-11T18:44:30.148Z,52.32
2018-04-11T18:46:58.476Z,52.36
2018-04-11T18:49:26.839Z,52.60
2018-04-11T18:51:55.707Z,52.44
2018-04-11T18:54:24.138Z,53.02
2018-04-11T18:56:52.465Z,52.83
2018-04-11T18:59:20.792Z,52.70
2018-04-11T19:01:49.145Z,52.67
2018-04-11T19:04:17.496Z,52.64
2018-04-11T19:06:45.853Z,53.08
2018-04-11T19:09:14.188Z,52.94
2018-04-11T19:11:42.712Z,53.13
2018-04-11T19:14:11.121Z,53.37
2018-04-11T19:16:39.461Z,53.52
2018-04-11T19:19:07.782Z,53.57
2018-04-11T19:21:36.241Z,53.79
2018-04-11T19:24:04.565Z,54.07
2018-04-11T19:26:32.899Z,54.28
2018-04-11T19:29:01.241Z,54.19
2018-04-11T19:31:29.596Z,54.44
2018-04-11T19:33:57.916Z,53.72
2018-04-11T19:36:26.307Z,54.01
2018-04-11T19:38:54.640Z,53.84
2018-04-11T19:41:22.998Z,53.99
2018-04-11T19:43:51.338Z,54.47
2018-04-11T19:46:19.665Z,54.08
2018-04-11T19:48:47.996Z,54.17
2018-04-11T19:51:16.356Z,54.05
2018-04-11T19:53:44.711Z,54.53
2018-04-11T19:56:13.037Z,54.16
2018-04-11T19:58:41.388Z,54.66
2018-04-11T20:01:09.717Z,54.69
2018-04-11T20:03:38.074Z,54.90
2018-04-11T20:06:06.397Z,55.31
2018-04-11T20:08:34.732Z,55.61
2018-04-11T20:11:03.110Z,55.86
2018-04-11T20:13:31.397Z,56.10
2018-04-11T20:15:59.770Z,56.11
2018-04-11T20:18:28.136Z,56.37
2018-04-11T20:20:56.482Z,56.82
2018-04-11T20:23:24.834Z,56.90
2018-04-11T20:25:53.255Z,56.58
2018-04-11T20:28:21.601Z,56.74
2018-04-11T20:30:49.957Z,56.92
2018-04-11T20:33:18.296Z,56.84
2018-04-11T20:35:46.614Z,57.15
2018-04-11T20:38:14.981Z,57.21
2018-04-11T20:40:43.474Z,57.32
2018-04-11T20:43:11.796Z,57.38
2018-04-11T20:45:40.134Z,57.77
2018-04-11T20:48:08.564Z,57.98
2018-04-11T20:50:36.980Z,58.55
2018-04-11T20:53:05.319Z,58.24
2018-04-11T20:55:33.644Z,58.79
2018-04-11T20:58:01.990Z,59.73
2018-04-11T21:00:30.324Z,59.83
2018-04-11T21:02:58.672Z,61.14
2018-04-11T21:05:27.109Z,60.38
2018-04-11T21:07:55.437Z,60.45
2018-04-11T21:10:23.863Z,61.19
2018-04-11T21:12:52.173Z,61.50
2018-04-11T21:15:20.498Z,61.80
2018-04-11T21:17:48.815Z,62.93
2018-04-11T21:20:17.168Z,63.33
2018-04-11T21:22:45.541Z,63.40
2018-04-11T21:25:13.953Z,63.82
2018-04-11T21:27:42.343Z,64.33
2018-04-11T21:30:10.713Z,64.30
2018-04-11T21:32:39.106Z,64.71
2018-04-11T21:35:09.889Z,64.89
2018-04-11T21:37:39.275Z,64.34
2018-04-11T21:40:07.656Z,64.04
2018-04-11T21:42:36.005Z,64.42
2018-04-11T21:45:04.340Z,63.65
2018-04-11T21:47:32.671Z,63.24
2018-04-11T21:50:01.023Z,63.23
2018-04-11T21:52:29.342Z,63.38
2018-04-11T21:54:57.688Z,64.19
2018-04-11T21:57:26.006Z,63.81
2018-04-11T21:59:54.356Z,63.83
2018-04-11T22:02:22.710Z,63.93
2018-04-11T22:04:51.044Z,64.72
2018-04-11T22:07:19.393Z,64.32
2018-04-11T22:09:47.725Z,65.46
2018-04-11T22:12:16.089Z,64.98
2018-04-11T22:14:44.420Z,64.79
2018-04-11T22:17:12.747Z,64.98
2018-04-11T22:19:41.111Z,65.14
2018-04-11T22:22:09.509Z,65.73
2018-04-11T22:24:37.847Z,65.87
2018-04-11T22:27:06.201Z,65.83
2018-04-11T22:29:34.560Z,66.05
2018-04-11T22:32:02.892Z,66.68
2018-04-11T22:34:31.214Z,66.85
2018-04-11T22:36:59.624Z,66.88
2018-04-11T22:39:27.965Z,66.90
2018-04-11T22:41:56.290Z,67.15
2018-04-11T22:44:24.614Z,67.21
2018-04-11T22:46:53.035Z,67.37
2018-04-11T22:49:21.676Z,66.69
2018-04-11T22:51:50.084Z,66.92
2018-04-11T22:54:18.419Z,66.64
2018-04-11T22:56:46.785Z,66.43
2018-04-11T22:59:15.166Z,66.31
2018-04-11T23:01:43.492Z,66.38
2018-04-11T23:04:11.835Z,66.42
2018-04-11T23:06:40.231Z,66.49
2018-04-11T23:09:08.544Z,66.80
2018-04-11T23:11:36.951Z,67.15
2018-04-11T23:14:05.280Z,67.20
2018-04-11T23:16:33.622Z,67.53
2018-04-11T23:19:01.967Z,67.34
2018-04-11T23:21:30.289Z,67.24
2018-04-11T23:23:58.622Z,67.38
2018-04-11T23:26:26.977Z,67.76
2018-04-11T23:28:55.400Z,68.60
2018-04-11T23:31:23.725Z,68.79
2018-04-11T23:33:52.056Z,68.89
2018-04-11T23:36:20.422Z,68.74
2018-04-11T23:38:48.809Z,69.10
2018-04-11T23:41:17.154Z,69.64
2018-04-11T23:43:46.918Z,69.47
2018-04-11T23:46:15.409Z,69.53
2018-04-11T23:48:43.804Z,69.33
2018-04-11T23:51:12.193Z,69.40
2018-04-11T23:53:40.574Z,69.30
2018-04-11T23:56:08.977Z,69.63
2018-04-11T23:58:37.322Z,69.85
